METAR Data
IDs: Format: Raw Decoded Include TAF

Data at: 1358 UTC 27 Nov 2021

KMXO 271355Z AUTO 15008KT 10SM FEW070 M00/M02 A2979 RMK AO2